createdAt,value
2019-01-03T00:00:30.390Z,13.47
2019-01-03T00:06:33.043Z,15.30
2019-01-03T00:18:39.811Z,13.40
2019-01-03T00:21:47.923Z,12.47
2019-01-03T00:24:31.342Z,12.90
2019-01-03T00:33:47.168Z,12.87
2019-01-03T00:36:55.249Z,13.20
2019-01-03T00:40:03.437Z,13.20
2019-01-03T00:43:11.511Z,13.17
2019-01-03T00:46:19.663Z,12.93
2019-01-03T00:49:27.909Z,14.33
2019-01-03T00:52:09.433Z,13.97
2019-01-03T00:55:17.513Z,15.23
2019-01-03T00:58:03.572Z,15.83
2019-01-03T01:04:00.345Z,21.63
2019-01-03T01:07:08.419Z,20.60
2019-01-03T01:10:09.580Z,24.80
2019-01-03T01:16:25.889Z,34.30
2019-01-03T01:19:07.529Z,34.57
2019-01-03T01:22:15.661Z,35.30
2019-01-03T01:25:16.815Z,30.30
2019-01-03T01:28:17.569Z,31.53
2019-01-03T01:31:18.403Z,23.50
2019-01-03T01:34:26.479Z,21.43
2019-01-03T01:37:34.665Z,20.50
2019-01-03T01:43:38.819Z,22.87
2019-01-03T01:46:24.596Z,22.47
2019-01-03T01:52:21.431Z,22.70
2019-01-03T01:55:29.544Z,24.20
2019-01-03T01:58:12.551Z,23.87
2019-01-03T02:04:22.484Z,23.23
2019-01-03T02:07:30.567Z,23.63
2019-01-03T02:10:13.984Z,23.23
2019-01-03T02:16:09.770Z,22.23
2019-01-03T02:19:17.850Z,22.60
2019-01-03T02:22:18.348Z,22.10
2019-01-03T02:25:26.466Z,21.87
2019-01-03T02:28:34.546Z,21.90
2019-01-03T02:31:35.214Z,21.53
2019-01-03T02:34:43.390Z,19.67
2019-01-03T02:37:44.679Z,19.83
2019-01-03T02:43:58.995Z,18.57
2019-01-03T02:50:02.797Z,20.07
2019-01-03T02:53:04.049Z,18.03
2019-01-03T02:56:04.839Z,19.70
2019-01-03T03:02:15.475Z,20.20
2019-01-03T03:08:31.324Z,19.07
2019-01-03T03:11:32.338Z,19.43
2019-01-03T03:14:40.425Z,18.27
2019-01-03T03:20:47.671Z,20.03
2019-01-03T03:23:48.218Z,19.50
2019-01-03T03:26:49.298Z,18.03
2019-01-03T03:29:57.377Z,18.07
2019-01-03T03:32:58.228Z,17.90
2019-01-03T03:38:53.500Z,18.47
2019-01-03T03:42:01.560Z,19.03
2019-01-03T03:45:02.518Z,19.50
2019-01-03T03:50:57.956Z,19.33
2019-01-03T03:54:06.107Z,18.63
2019-01-03T03:56:49.564Z,17.80
2019-01-03T03:59:57.665Z,18.97
2019-01-03T04:06:08.178Z,19.23
2019-01-03T04:15:09.648Z,23.23
2019-01-03T04:18:10.670Z,22.37
2019-01-03T04:21:11.450Z,17.83
2019-01-03T04:23:58.074Z,17.03
2019-01-03T04:27:06.145Z,16.20
2019-01-03T04:30:07.177Z,17.13
2019-01-03T04:33:07.962Z,16.90
2019-01-03T04:39:15.411Z,18.67
2019-01-03T04:42:16.476Z,15.67
2019-01-03T04:45:15.565Z,15.13
2019-01-03T04:48:16.682Z,14.97
2019-01-03T04:51:17.269Z,12.33
2019-01-03T04:54:17.940Z,12.60
2019-01-03T04:57:19.219Z,12.60
2019-01-03T05:00:18.243Z,12.53
2019-01-03T05:03:01.784Z,12.30
2019-01-03T05:06:09.863Z,12.63
2019-01-03T05:09:18.048Z,11.13
2019-01-03T05:12:26.131Z,11.30
2019-01-03T05:15:34.257Z,11.07
2019-01-03T05:18:50.884Z,10.93
2019-01-03T05:21:34.229Z,9.80
2019-01-03T05:27:29.700Z,10.43
2019-01-03T05:30:30.660Z,11.13
2019-01-03T05:33:38.745Z,12.40
2019-01-03T05:36:46.822Z,19.43
2019-01-03T05:42:50.749Z,22.30
2019-01-03T05:45:51.432Z,17.40
2019-01-03T05:48:51.918Z,16.27
2019-01-03T05:51:52.683Z,16.00
2019-01-03T05:54:53.492Z,17.93
2019-01-03T05:57:36.848Z,16.20
2019-01-03T06:06:05.042Z,19.43
2019-01-03T06:09:13.120Z,16.83
2019-01-03T06:12:13.720Z,15.27
2019-01-03T06:15:14.628Z,13.70
2019-01-03T06:18:15.365Z,12.87
2019-01-03T06:24:25.364Z,14.27
2019-01-03T06:27:33.453Z,13.40
2019-01-03T06:33:35.865Z,14.63
2019-01-03T06:36:19.238Z,12.80
2019-01-03T06:39:27.326Z,13.50
2019-01-03T06:45:34.712Z,11.80
2019-01-03T06:48:21.583Z,12.03
2019-01-03T06:51:29.672Z,11.47
2019-01-03T06:54:37.748Z,11.00
2019-01-03T06:57:45.851Z,10.77
2019-01-03T07:00:53.939Z,11.03
2019-01-03T07:04:02.028Z,10.77
2019-01-03T07:10:09.224Z,11.67
2019-01-03T07:12:52.676Z,15.03
2019-01-03T07:15:53.789Z,10.43
2019-01-03T07:19:02.049Z,10.13
2019-01-03T07:22:10.128Z,9.40
2019-01-03T07:30:45.555Z,10.63
2019-01-03T07:33:28.969Z,11.60
2019-01-03T07:39:29.904Z,11.30
2019-01-03T07:42:16.470Z,12.30
2019-01-03T07:45:17.068Z,12.27
2019-01-03T07:48:25.153Z,12.10
2019-01-03T07:51:25.856Z,13.47
2019-01-03T07:54:33.939Z,13.27
2019-01-03T07:57:17.195Z,12.60
2019-01-03T08:00:46.022Z,12.40
2019-01-03T08:03:29.324Z,14.20
2019-01-03T08:09:22.241Z,15.07
2019-01-03T08:12:30.323Z,15.10
2019-01-03T08:15:14.051Z,15.33
2019-01-03T08:17:59.934Z,16.43
2019-01-03T08:21:08.015Z,16.30
2019-01-03T08:26:49.817Z,15.43
2019-01-03T08:29:57.900Z,14.63
2019-01-03T08:32:59.022Z,16.17
2019-01-03T08:38:51.769Z,15.77
2019-01-03T08:41:59.892Z,15.70
2019-01-03T08:44:46.285Z,14.33
2019-01-03T08:47:54.468Z,15.27
2019-01-03T08:50:55.158Z,18.00
2019-01-03T08:54:03.242Z,15.57
2019-01-03T08:57:02.416Z,12.10
2019-01-03T09:03:12.569Z,10.70
2019-01-03T09:06:20.742Z,12.90
2019-01-03T09:09:04.087Z,15.33
2019-01-03T09:12:12.161Z,15.27
2019-01-03T09:15:13.290Z,15.43
2019-01-03T09:21:09.155Z,14.87
2019-01-03T09:24:17.231Z,14.50
2019-01-03T09:27:18.629Z,14.73
2019-01-03T09:33:15.934Z,12.27
2019-01-03T09:36:24.013Z,11.50
2019-01-03T09:39:11.419Z,12.00
2019-01-03T09:42:19.495Z,12.03
2019-01-03T09:45:08.851Z,12.07
2019-01-03T09:47:58.032Z,11.43
2019-01-03T09:51:06.109Z,12.67
2019-01-03T09:53:55.368Z,11.63
2019-01-03T09:56:44.548Z,10.70
2019-01-03T10:02:21.034Z,11.23
2019-01-03T10:05:10.223Z,11.50
2019-01-03T10:07:59.407Z,10.93
2019-01-03T10:10:48.586Z,11.70
2019-01-03T10:13:37.770Z,11.63
2019-01-03T10:16:45.846Z,11.30
2019-01-03T10:19:27.725Z,11.20
2019-01-03T10:22:09.419Z,11.17
2019-01-03T10:24:58.619Z,11.70
2019-01-03T10:27:40.386Z,11.33
2019-01-03T10:30:29.610Z,11.83
2019-01-03T10:33:11.086Z,11.17
2019-01-03T10:36:00.303Z,10.87
2019-01-03T10:38:42.594Z,11.10
2019-01-03T10:41:24.595Z,10.60
2019-01-03T10:44:13.789Z,11.30
2019-01-03T10:47:02.976Z,10.60
2019-01-03T10:53:07.089Z,11.17
2019-01-03T10:55:49.378Z,10.77
2019-01-03T10:58:38.572Z,10.40
2019-01-03T11:01:27.749Z,9.57
2019-01-03T11:04:16.816Z,10.17
2019-01-03T11:09:53.069Z,10.07
2019-01-03T11:12:42.311Z,9.10
2019-01-03T11:15:31.493Z,8.17
2019-01-03T11:21:34.232Z,8.37
2019-01-03T11:24:16.401Z,8.10
2019-01-03T11:27:05.616Z,7.13
2019-01-03T11:29:47.067Z,7.70
2019-01-03T11:32:36.314Z,8.40
2019-01-03T11:35:25.592Z,7.37
2019-01-03T11:38:14.888Z,7.60
2019-01-03T11:40:56.612Z,6.57
2019-01-03T11:43:45.717Z,7.00
2019-01-03T11:46:27.785Z,6.20
2019-01-03T11:49:17.019Z,6.03
2019-01-03T11:51:59.064Z,5.87
2019-01-03T11:54:48.234Z,5.30
2019-01-03T11:57:30.204Z,4.90
2019-01-03T12:00:38.302Z,5.87
2019-01-03T12:03:20.676Z,5.50
2019-01-03T12:09:01.373Z,5.97
2019-01-03T12:11:50.689Z,4.90
2019-01-03T12:14:39.870Z,4.97
2019-01-03T12:17:40.217Z,4.70
2019-01-03T12:20:29.442Z,4.67
2019-01-03T12:23:11.047Z,4.73
2019-01-03T12:26:00.330Z,4.90
2019-01-03T12:28:49.708Z,5.00
2019-01-03T12:34:39.492Z,5.30
2019-01-03T12:37:28.754Z,5.10
2019-01-03T12:40:18.032Z,4.50
2019-01-03T12:43:00.127Z,4.43
2019-01-03T12:48:45.486Z,5.30
2019-01-03T12:51:32.599Z,5.20
2019-01-03T12:54:21.782Z,4.50
2019-01-03T13:00:13.534Z,4.70
2019-01-03T13:06:03.543Z,4.50
2019-01-03T13:08:53.048Z,4.93
2019-01-03T13:14:48.343Z,4.73
2019-01-03T13:17:37.789Z,3.97
2019-01-03T13:23:14.494Z,4.50
2019-01-03T13:26:04.053Z,4.73
2019-01-03T13:28:53.435Z,3.83
2019-01-03T13:34:38.579Z,4.33
2019-01-03T13:37:20.197Z,4.40
2019-01-03T13:40:09.371Z,3.73
2019-01-03T13:42:51.259Z,4.30
2019-01-03T13:45:40.565Z,4.27
2019-01-03T13:48:22.234Z,4.70
2019-01-03T13:51:11.458Z,4.37
2019-01-03T13:53:53.536Z,3.63
2019-01-03T13:56:42.830Z,4.10
2019-01-03T13:59:22.890Z,4.13
2019-01-03T14:02:12.254Z,4.23
2019-01-03T14:04:54.049Z,3.67
2019-01-03T14:07:43.333Z,3.60
2019-01-03T14:10:25.558Z,3.97
2019-01-03T14:13:26.937Z,3.90
2019-01-03T14:16:16.284Z,3.90
2019-01-03T14:19:05.496Z,4.40
2019-01-03T14:21:54.749Z,3.53
2019-01-03T14:24:36.991Z,3.60
2019-01-03T14:27:17.065Z,3.40
2019-01-03T14:29:59.408Z,3.50
2019-01-03T14:32:48.663Z,3.83
2019-01-03T14:35:49.188Z,3.90
2019-01-03T14:38:38.431Z,3.93
2019-01-03T14:41:27.719Z,4.30
2019-01-03T14:44:09.448Z,3.87
2019-01-03T14:46:58.795Z,3.30
2019-01-03T14:49:40.236Z,4.13
2019-01-03T14:52:29.683Z,4.43
2019-01-03T14:55:11.262Z,3.87
2019-01-03T14:58:00.476Z,3.37
2019-01-03T15:00:42.096Z,3.80
2019-01-03T15:03:31.423Z,3.60
2019-01-03T15:06:20.655Z,4.63
2019-01-03T15:09:09.827Z,4.33
2019-01-03T15:11:59.008Z,4.20
2019-01-03T15:14:48.194Z,3.40
2019-01-03T15:17:37.468Z,4.13
2019-01-03T15:20:19.333Z,3.97
2019-01-03T15:23:08.557Z,3.30
2019-01-03T15:25:50.155Z,3.30
2019-01-03T15:28:39.359Z,3.40
2019-01-03T15:31:20.828Z,3.53
2019-01-03T15:37:10.339Z,3.40
2019-01-03T15:39:52.109Z,2.90
2019-01-03T15:42:41.320Z,3.60
2019-01-03T15:45:30.613Z,8.33
2019-01-03T15:48:19.894Z,6.53
2019-01-03T15:51:01.449Z,3.67
2019-01-03T15:53:50.772Z,4.17
2019-01-03T15:56:32.745Z,4.27
2019-01-03T15:59:22.037Z,4.70
2019-01-03T16:02:04.326Z,5.40
2019-01-03T16:04:53.536Z,6.10
2019-01-03T16:07:42.815Z,4.20
2019-01-03T16:16:34.368Z,4.80
2019-01-03T16:25:07.191Z,4.60
2019-01-03T16:27:48.655Z,4.13
2019-01-03T16:30:37.962Z,4.50
2019-01-03T16:33:19.374Z,3.97
2019-01-03T16:36:08.547Z,4.53
2019-01-03T16:41:37.700Z,4.50
2019-01-03T16:44:26.983Z,4.30
2019-01-03T16:47:16.371Z,4.70
2019-01-03T16:50:26.501Z,4.67
2019-01-03T16:53:08.936Z,5.03
2019-01-03T16:55:58.164Z,4.87
2019-01-03T16:58:40.368Z,4.80
2019-01-03T17:01:29.543Z,5.90
2019-01-03T17:04:11.434Z,5.00
2019-01-03T17:07:00.631Z,5.10
2019-01-03T17:09:49.811Z,5.27
2019-01-03T17:12:39.293Z,5.67
2019-01-03T17:15:28.387Z,6.00
2019-01-03T17:18:17.471Z,6.77
2019-01-03T17:21:06.604Z,7.80
2019-01-03T17:23:48.709Z,7.97
2019-01-03T17:29:30.105Z,7.90
2019-01-03T17:32:19.278Z,8.30
2019-01-03T17:34:59.381Z,8.87
2019-01-03T17:37:48.475Z,8.67
2019-01-03T17:40:30.930Z,9.50
2019-01-03T17:43:20.132Z,11.75
2019-01-03T17:46:02.232Z,12.50
2019-01-03T17:51:58.020Z,7.60
2019-01-03T17:54:47.287Z,7.17
2019-01-03T17:57:36.473Z,7.17
2019-01-03T18:00:25.591Z,8.90
2019-01-03T18:06:14.425Z,9.67
2019-01-03T18:08:56.628Z,9.27
2019-01-03T18:11:45.910Z,8.90
2019-01-03T18:14:27.510Z,10.27
2019-01-03T18:17:16.689Z,10.73
2019-01-03T18:19:56.679Z,10.70
2019-01-03T18:23:04.835Z,11.20
2019-01-03T18:25:46.588Z,12.00
2019-01-03T18:28:54.760Z,14.57
2019-01-03T18:31:36.738Z,24.57
2019-01-03T18:34:44.889Z,15.67
2019-01-03T18:37:27.011Z,24.53
2019-01-03T18:40:35.178Z,26.13
2019-01-03T18:43:16.801Z,27.80
2019-01-03T18:46:06.061Z,28.23
2019-01-03T18:48:49.638Z,34.40
2019-01-03T18:51:38.913Z,33.87
2019-01-03T18:54:20.445Z,28.50
2019-01-03T18:57:09.607Z,29.40
2019-01-03T18:59:58.865Z,24.57
2019-01-03T19:03:07.060Z,26.48
2019-01-03T19:05:49.018Z,27.77
2019-01-03T19:11:38.513Z,29.13
2019-01-03T19:17:28.125Z,29.27
2019-01-03T19:20:17.193Z,27.50
2019-01-03T19:22:59.446Z,27.03
2019-01-03T19:28:42.950Z,27.67
2019-01-03T19:31:25.070Z,27.80
2019-01-03T19:34:14.316Z,26.20
2019-01-03T19:37:03.494Z,26.93
2019-01-03T19:39:52.676Z,27.90
2019-01-03T19:42:53.490Z,27.37
2019-01-03T19:46:01.547Z,31.27
2019-01-03T19:48:43.722Z,27.17
2019-01-03T19:51:32.997Z,25.93
2019-01-03T19:54:22.175Z,23.87
2019-01-03T19:57:11.555Z,24.67
2019-01-03T20:00:12.160Z,24.33
2019-01-03T20:03:01.306Z,26.17
2019-01-03T20:05:50.599Z,32.43
2019-01-03T20:11:42.316Z,44.87
2019-01-03T20:14:31.623Z,45.50
2019-01-03T20:20:15.083Z,46.33
2019-01-03T20:26:19.295Z,53.40
2019-01-03T20:29:01.523Z,58.63
2019-01-03T20:31:43.620Z,59.30
2019-01-03T20:34:43.537Z,60.43
2019-01-03T20:43:49.012Z,68.60
2019-01-03T20:49:43.864Z,83.43
2019-01-03T20:52:52.339Z,92.53
2019-01-03T20:55:34.723Z,99.10
2019-01-03T20:58:24.194Z,98.03
2019-01-03T21:01:32.711Z,101.73
2019-01-03T21:04:14.667Z,110.20
2019-01-03T21:13:07.571Z,109.40
2019-01-03T21:22:02.962Z,87.13
2019-01-03T21:30:36.601Z,74.77
2019-01-03T21:33:18.273Z,66.10
2019-01-03T21:36:07.636Z,69.03
2019-01-03T21:38:56.708Z,69.63
2019-01-03T21:41:38.917Z,65.80
2019-01-03T21:44:47.522Z,62.63
2019-01-03T21:47:56.058Z,109.70
2019-01-03T21:50:38.527Z,70.80
2019-01-03T21:53:27.686Z,63.93
2019-01-03T21:56:09.629Z,65.17
2019-01-03T21:58:58.985Z,63.27
2019-01-03T22:01:48.348Z,61.47
2019-01-03T22:04:37.591Z,58.87
2019-01-03T22:07:26.808Z,59.13
2019-01-03T22:10:09.302Z,58.93
2019-01-03T22:15:54.154Z,56.57
2019-01-03T22:18:35.978Z,60.97
2019-01-03T22:21:25.263Z,72.73
2019-01-03T22:24:14.532Z,69.00
2019-01-03T22:27:03.703Z,60.70
2019-01-03T22:29:45.506Z,58.90
2019-01-03T22:32:34.693Z,59.80
2019-01-03T22:35:24.218Z,59.87
2019-01-03T22:41:15.328Z,57.30
2019-01-03T22:44:04.589Z,65.70
2019-01-03T22:46:54.144Z,63.67
2019-01-03T22:52:38.325Z,59.93
2019-01-03T22:55:20.585Z,65.67
2019-01-03T22:58:09.828Z,65.97
2019-01-03T23:00:51.883Z,70.93
2019-01-03T23:03:41.090Z,68.43
2019-01-03T23:06:23.334Z,76.33
2019-01-03T23:09:12.671Z,79.27
2019-01-03T23:12:02.048Z,79.73
2019-01-03T23:15:10.142Z,73.63
2019-01-03T23:20:53.763Z,80.87
2019-01-03T23:23:35.715Z,72.70
2019-01-03T23:26:25.025Z,76.47
2019-01-03T23:29:05.173Z,78.53
2019-01-03T23:31:54.570Z,85.23
2019-01-03T23:34:36.216Z,105.40
2019-01-03T23:37:17.910Z,83.63
2019-01-03T23:40:18.487Z,74.60
2019-01-03T23:43:08.003Z,71.33
2019-01-03T23:45:57.231Z,65.37
2019-01-03T23:51:49.008Z,63.17
2019-01-03T23:54:38.345Z,64.67
2019-01-03T23:57:27.521Z,63.40
